createdAt,value
2023-05-24T03:12:31.159Z,16.15
2023-05-24T03:15:33.877Z,16.15
2023-05-24T03:18:37.266Z,15.56
2023-05-24T03:21:39.769Z,15.46
2023-05-24T03:24:41.970Z,15.47
2023-05-24T03:27:46.520Z,15.57
2023-05-24T03:30:49.191Z,15.63
2023-05-24T03:33:52.308Z,15.64
2023-05-24T03:36:54.530Z,15.66
2023-05-24T03:39:57.492Z,15.84
2023-05-24T03:43:00.837Z,16.04
2023-05-24T03:46:03.960Z,16.16
2023-05-24T03:49:07.560Z,16.20
2023-05-24T03:52:11.911Z,16.19
2023-05-24T03:55:15.011Z,16.26
2023-05-24T03:58:17.568Z,16.36
2023-05-24T04:01:32.811Z,16.46
2023-05-24T04:04:39.533Z,16.61
2023-05-24T04:07:42.369Z,16.74
2023-05-24T04:10:45.219Z,16.77
2023-05-24T04:13:47.660Z,16.68
2023-05-24T04:16:50.148Z,16.62
2023-05-24T04:19:54.431Z,16.86
2023-05-24T04:22:57.018Z,16.84
2023-05-24T04:25:59.309Z,16.73
2023-05-24T04:29:01.794Z,16.77
2023-05-24T04:32:04.746Z,17.01
2023-05-24T04:35:08.175Z,17.10
2023-05-24T04:38:12.546Z,17.19
2023-05-24T04:41:15.021Z,17.27
2023-05-24T04:44:17.540Z,17.16
2023-05-24T04:47:20.025Z,17.09
2023-05-24T04:50:22.209Z,17.09
2023-05-24T04:53:24.956Z,17.23
2023-05-24T04:56:27.335Z,17.54
2023-05-24T04:59:30.038Z,17.80
2023-05-24T05:02:33.114Z,17.96
2023-05-24T05:05:36.061Z,18.10
2023-05-24T05:08:41.266Z,18.35
2023-05-24T05:11:48.534Z,18.27
2023-05-24T05:14:50.780Z,18.25
2023-05-24T05:17:54.784Z,18.61
2023-05-24T05:20:57.270Z,18.95
2023-05-24T05:24:04.078Z,18.90
2023-05-24T05:27:06.657Z,18.54
2023-05-24T05:30:09.719Z,18.82
2023-05-24T05:33:12.552Z,18.86
2023-05-24T05:36:16.055Z,19.27
2023-05-24T05:39:18.266Z,19.77
2023-05-24T05:42:20.785Z,20.05
2023-05-24T05:45:23.133Z,20.51
2023-05-24T05:48:26.378Z,21.02
2023-05-24T05:51:28.731Z,21.34
2023-05-24T05:54:31.572Z,20.92
2023-05-24T05:57:33.772Z,20.72
2023-05-24T06:00:36.240Z,21.12
2023-05-24T06:03:39.090Z,21.18
2023-05-24T06:06:41.600Z,20.73
2023-05-24T06:09:44.104Z,20.77
2023-05-24T06:12:46.271Z,20.71
2023-05-24T06:15:49.962Z,20.54
2023-05-24T06:19:04.580Z,20.18
2023-05-24T06:22:08.534Z,20.00
2023-05-24T06:25:15.493Z,20.01
2023-05-24T06:28:18.092Z,19.91
2023-05-24T06:31:20.386Z,20.24
2023-05-24T06:34:23.081Z,19.93
2023-05-24T06:37:31.418Z,20.11
2023-05-24T06:40:34.211Z,20.01
2023-05-24T06:43:36.510Z,20.44
2023-05-24T06:46:40.072Z,20.68
2023-05-24T06:49:42.708Z,21.34
2023-05-24T06:52:45.188Z,21.76
2023-05-24T06:55:47.366Z,22.52
2023-05-24T06:58:49.882Z,22.79
2023-05-24T07:01:57.945Z,23.29
2023-05-24T07:05:02.218Z,23.27
2023-05-24T07:08:04.599Z,23.53
2023-05-24T07:11:07.901Z,23.13
2023-05-24T07:14:10.285Z,22.63
2023-05-24T07:17:12.933Z,23.15
2023-05-24T07:20:15.261Z,23.23
2023-05-24T07:23:19.792Z,23.28
2023-05-24T07:26:22.324Z,22.46
2023-05-24T07:29:26.366Z,22.58
2023-05-24T07:32:29.417Z,22.90
2023-05-24T07:35:32.886Z,23.42
2023-05-24T07:38:36.346Z,22.76
2023-05-24T07:41:39.361Z,22.68
2023-05-24T07:44:42.258Z,22.86
2023-05-24T07:47:44.882Z,22.75
2023-05-24T07:50:50.087Z,22.78
2023-05-24T07:53:52.842Z,22.81
2023-05-24T07:56:55.254Z,22.58
2023-05-24T07:59:57.686Z,22.50
2023-05-24T08:03:00.329Z,22.20
2023-05-24T08:06:02.950Z,23.15
2023-05-24T08:09:05.383Z,23.30
2023-05-24T08:12:08.421Z,23.77
2023-05-24T08:15:11.050Z,24.42
2023-05-24T08:18:14.043Z,24.79
2023-05-24T08:21:16.587Z,25.33
2023-05-24T08:24:20.766Z,25.82
2023-05-24T08:27:23.681Z,25.03
2023-05-24T08:30:26.136Z,24.78
2023-05-24T08:33:29.789Z,24.49
2023-05-24T08:36:32.893Z,24.97
2023-05-24T08:39:35.144Z,24.39
2023-05-24T08:42:38.837Z,23.94
2023-05-24T08:45:42.152Z,24.09
2023-05-24T08:48:49.630Z,23.83
2023-05-24T08:51:52.313Z,24.53
2023-05-24T08:54:55.357Z,24.76
2023-05-24T08:57:59.752Z,25.02
2023-05-24T09:01:02.606Z,25.18
2023-05-24T09:04:06.247Z,24.99
2023-05-24T09:07:13.576Z,26.59
2023-05-24T09:10:16.846Z,24.92
2023-05-24T09:13:19.656Z,25.03
2023-05-24T09:16:22.133Z,25.98
2023-05-24T09:19:24.683Z,26.77
2023-05-24T09:22:28.386Z,26.97
2023-05-24T09:25:30.953Z,26.96
2023-05-24T09:28:33.300Z,29.15
2023-05-24T09:31:39.498Z,28.58
2023-05-24T09:34:43.740Z,29.96
2023-05-24T09:37:47.185Z,30.09
2023-05-24T09:41:07.465Z,32.65
2023-05-24T09:44:14.718Z,33.37
2023-05-24T09:47:17.012Z,34.70
2023-05-24T09:50:19.658Z,33.28
2023-05-24T09:53:22.442Z,34.14
2023-05-24T09:56:25.107Z,35.85
2023-05-24T09:59:28.195Z,35.78
2023-05-24T10:02:38.213Z,37.26
2023-05-24T10:05:46.836Z,36.84
2023-05-24T10:08:50.789Z,37.45
2023-05-24T10:11:53.218Z,37.62
2023-05-24T10:14:57.830Z,39.57
2023-05-24T10:18:01.978Z,39.43
2023-05-24T10:21:11.822Z,39.79
2023-05-24T10:24:19.746Z,40.86
2023-05-24T10:27:26.229Z,38.20
2023-05-24T10:30:37.531Z,37.20
2023-05-24T10:33:42.771Z,35.15
2023-05-24T10:36:45.779Z,36.50
2023-05-24T10:39:48.172Z,38.70
2023-05-24T10:42:51.686Z,35.57
2023-05-24T10:45:56.567Z,36.97
2023-05-24T10:49:01.149Z,39.77
2023-05-24T10:52:10.754Z,40.08
2023-05-24T10:55:13.428Z,38.50
2023-05-24T10:58:15.678Z,37.99
2023-05-24T11:01:27.635Z,40.00
2023-05-24T11:04:36.517Z,39.28
2023-05-24T11:07:45.639Z,37.82
2023-05-24T11:10:47.898Z,36.62
2023-05-24T11:13:56.835Z,35.10
2023-05-24T11:17:02.859Z,34.40
2023-05-24T11:20:09.637Z,32.24
2023-05-24T11:23:12.234Z,29.08
2023-05-24T11:26:15.179Z,27.83
2023-05-24T11:29:22.720Z,28.23
2023-05-24T11:32:25.806Z,28.31
2023-05-24T11:35:31.594Z,28.58
2023-05-24T11:38:36.690Z,28.44
2023-05-24T11:41:39.900Z,27.38
2023-05-24T11:44:42.462Z,26.40
2023-05-24T11:47:44.892Z,25.86
2023-05-24T11:50:51.971Z,25.96
2023-05-24T11:53:54.995Z,26.40
2023-05-24T11:56:58.131Z,26.95
2023-05-24T12:00:00.380Z,27.21
2023-05-24T12:03:07.436Z,27.63
2023-05-24T12:06:10.063Z,27.79
2023-05-24T12:09:18.005Z,27.91
2023-05-24T12:12:27.064Z,28.12
2023-05-24T12:15:36.881Z,27.72
2023-05-24T12:18:45.756Z,27.15
2023-05-24T12:21:57.805Z,27.48
2023-05-24T12:25:00.272Z,27.69
2023-05-24T12:28:03.618Z,27.27
2023-05-24T12:31:07.066Z,26.55
2023-05-24T12:34:13.635Z,26.19
2023-05-24T12:37:18.483Z,26.23
2023-05-24T12:40:23.164Z,26.48
2023-05-24T12:43:25.977Z,26.47
2023-05-24T12:46:28.199Z,26.34
2023-05-24T12:49:31.581Z,25.54
2023-05-24T12:52:33.829Z,24.47
2023-05-24T12:55:36.305Z,24.88
2023-05-24T12:58:38.473Z,25.07
2023-05-24T13:01:41.318Z,25.11
2023-05-24T13:04:43.704Z,25.40
2023-05-24T13:07:46.177Z,25.49
2023-05-24T13:10:50.704Z,25.29
2023-05-24T13:13:53.503Z,24.92
2023-05-24T13:16:56.069Z,24.62
2023-05-24T13:20:01.896Z,25.08
2023-05-24T13:23:04.278Z,25.30
2023-05-24T13:26:06.969Z,25.05
2023-05-24T13:32:14.845Z,25.57
2023-05-24T13:35:16.988Z,24.98
2023-05-24T13:38:21.032Z,24.61
2023-05-24T13:41:23.335Z,24.88
2023-05-24T13:44:25.960Z,24.68
2023-05-24T13:47:39.389Z,24.67
2023-05-24T13:50:42.666Z,24.96
2023-05-24T13:53:47.804Z,24.74
2023-05-24T13:56:50.827Z,25.00
2023-05-24T13:59:53.279Z,25.06
2023-05-24T14:02:56.003Z,25.07
2023-05-24T14:05:58.679Z,25.27
2023-05-24T14:09:00.967Z,25.14
2023-05-24T14:12:04.567Z,24.87
2023-05-24T14:15:07.562Z,24.72
2023-05-24T14:18:10.905Z,24.59
2023-05-24T14:21:13.170Z,24.60
2023-05-24T14:24:15.783Z,24.92
2023-05-24T14:27:18.072Z,24.92
2023-05-24T14:30:20.760Z,24.82
2023-05-24T14:33:23.497Z,24.70
2023-05-24T14:36:26.077Z,24.19
2023-05-24T14:39:28.293Z,24.12
2023-05-24T14:42:31.253Z,24.13
2023-05-24T14:45:33.806Z,24.17
2023-05-24T14:48:37.304Z,24.27
2023-05-24T14:51:39.501Z,24.07
2023-05-24T14:54:42.102Z,24.09
2023-05-24T14:57:44.370Z,24.17
2023-05-24T15:00:47.101Z,23.89
2023-05-24T15:03:49.584Z,24.18
2023-05-24T15:06:52.201Z,24.13
2023-05-24T15:09:54.643Z,24.34
2023-05-24T15:12:57.080Z,24.55
2023-05-24T15:16:00.360Z,24.30
2023-05-24T15:19:02.861Z,24.22
